Time;durP1;ratioP1;P1;durP2;ratioP2;P2;SDS_P1;SDS_P2;PMS_P1;PMS_P2;Temp;Humidity;BMP_temperature;BMP_pressure;BME280_temperature;BME280_humidity;BME280_pressure;Samples;Min_cycle;Max_cycle;Signal;HPM_P1;HPM_P2
2023/04/16 00:00:27;;;;;;;32.60;19.67;;;10.60;91.30;;;9.94;75.77;100918.72;5027703;28;20037;-79
2023/04/16 00:02:56;;;;;;;37.88;21.00;;;10.70;91.60;;;9.95;75.96;100928.34;5023676;28;20065;-79
2023/04/16 00:05:23;;;;;;;38.33;21.60;;;10.60;91.60;;;9.92;75.91;100918.91;5021658;28;20518;-80
2023/04/16 00:07:51;;;;;;;36.55;20.60;;;10.60;91.60;;;9.93;75.91;100927.72;5024816;28;20164;-79
2023/04/16 00:10:19;;;;;;;40.85;22.00;;;10.60;91.60;;;9.90;75.97;100920.13;5027440;28;20077;-79
2023/04/16 00:12:46;;;;;;;39.92;21.25;;;10.60;91.90;;;9.91;76.09;100927.13;5027717;28;20123;-80
2023/04/16 00:15:13;;;;;;;39.70;22.15;;;10.80;91.70;;;9.91;75.80;100925.28;5024695;28;20198;-79
2023/04/16 00:17:40;;;;;;;44.67;24.15;;;10.60;91.40;;;9.94;75.96;100924.03;5029692;28;20560;-78
2023/04/16 00:20:10;;;;;;;44.33;24.55;;;10.90;91.80;;;9.93;75.79;100925.06;5017823;28;20067;-79
2023/04/16 00:22:37;;;;;;;47.70;23.48;;;10.60;91.50;;;9.93;75.71;100928.56;5030354;28;20445;-79
2023/04/16 00:25:05;;;;;;;35.75;22.20;;;10.60;91.60;;;9.93;75.87;100928.56;5030149;28;20061;-80
2023/04/16 00:27:33;;;;;;;38.28;22.88;;;10.60;91.50;;;9.93;76.04;100928.56;5030704;28;20042;-80
2023/04/16 00:30:00;;;;;;;36.97;23.02;;;10.60;91.60;;;9.95;75.83;100933.66;5030207;28;20079;-80
2023/04/16 00:32:27;;;;;;;35.10;20.45;;;10.60;91.60;;;9.94;75.81;100932.03;5029574;28;20113;-80
2023/04/16 00:34:54;;;;;;;37.17;19.55;;;10.60;91.40;;;9.94;75.79;100929.38;5029921;28;20049;-79
2023/04/16 00:37:23;;;;;;;37.92;20.83;;;10.70;91.60;;;9.95;75.73;100936.34;5028819;28;20069;-79
2023/04/16 00:39:50;;;;;;;35.55;21.15;;;10.60;91.40;;;9.95;75.62;100941.66;5029686;28;20056;-80
2023/04/16 00:42:18;;;;;;;37.13;23.23;;;10.70;91.60;;;9.95;75.69;100931.00;5029403;28;20111;-80
2023/04/16 00:44:45;;;;;;;35.05;21.60;;;10.60;91.60;;;9.95;75.85;100939.00;5028746;28;20057;-80
2023/04/16 00:47:12;;;;;;;40.60;22.42;;;10.60;91.70;;;9.95;75.76;100933.66;5038156;28;20398;-78
2023/04/16 00:49:40;;;;;;;40.80;21.33;;;10.60;91.60;;;9.93;75.87;100939.22;5032927;28;20044;-78
2023/04/16 00:52:08;;;;;;;37.08;21.70;;;10.60;91.60;;;9.93;75.86;100939.22;5027315;28;20046;-80
2023/04/16 00:54:37;;;;;;;40.03;23.45;;;10.60;91.70;;;9.93;75.86;100938.38;5030713;28;20057;-79
2023/04/16 00:57:04;;;;;;;34.85;20.58;;;10.60;91.50;;;9.94;75.69;100937.38;5044222;28;20045;-82
2023/04/16 00:59:32;;;;;;;36.15;21.15;;;10.60;91.60;;;9.94;75.94;100945.34;5048092;23;20559;-75
2023/04/16 01:01:59;;;;;;;37.60;21.13;;;10.60;91.80;;;9.94;76.05;100945.34;5036871;28;20049;-76
2023/04/16 01:04:28;;;;;;;38.35;22.35;;;10.60;91.80;;;9.91;75.94;100941.25;5035909;28;20470;-75
2023/04/16 01:06:55;;;;;;;45.22;24.05;;;10.60;91.70;;;9.91;75.78;100941.25;5044994;28;20094;-75
2023/04/16 01:09:23;;;;;;;36.13;22.25;;;10.60;91.40;;;9.93;75.88;100943.72;5043715;28;20157;-75
2023/04/16 01:11:51;;;;;;;37.63;21.02;;;10.60;91.60;;;9.93;75.99;100938.38;5029476;28;20042;-77
2023/04/16 01:14:18;;;;;;;33.38;20.65;;;10.60;91.70;;;9.93;75.83;100935.72;5020039;28;20141;-76
2023/04/16 01:16:46;;;;;;;28.23;18.60;;;10.60;91.40;;;9.95;75.67;100941.66;5015271;28;20670;-75
2023/04/16 01:19:13;;;;;;;35.10;19.75;;;10.60;91.40;;;9.96;75.72;100940.69;5028651;28;20490;-76
2023/04/16 01:21:41;;;;;;;33.20;20.30;;;10.70;91.40;;;9.96;75.74;100946.00;5027952;28;20128;-77
2023/04/16 01:24:08;;;;;;;34.65;20.33;;;10.60;91.40;;;9.97;75.75;100955.63;5020828;28;20041;-75
2023/04/16 01:26:36;;;;;;;34.45;21.58;;;10.70;91.50;;;9.96;75.76;100954.81;5023613;28;20145;-76
2023/04/16 01:29:03;;;;;;;34.08;20.58;;;10.70;91.70;;;9.96;75.79;100957.47;5043727;28;20567;-74
2023/04/16 01:31:30;;;;;;;37.70;21.30;;;10.70;91.60;;;9.97;75.83;100955.63;5028507;28;20517;-76
2023/04/16 01:34:05;;;;;;;39.10;22.15;;;10.60;91.40;;;9.95;75.90;100957.66;5035433;28;20140;-76
2023/04/16 01:36:33;;;;;;;37.10;20.67;;;10.60;91.60;;;9.93;75.81;100959.69;5027802;28;20069;-74
2023/04/16 01:39:02;;;;;;;30.10;20.55;;;10.70;91.60;;;9.91;76.13;100957.25;5028897;28;20111;-76
2023/04/16 01:41:29;;;;;;;33.63;19.63;;;10.60;91.70;;;9.90;76.31;100960.91;5023420;28;20094;-76
2023/04/16 01:43:56;;;;;;;34.42;20.13;;;10.60;91.80;;;9.92;76.32;100953.56;5017077;28;20047;-76
2023/04/16 01:46:28;;;;;;;33.33;20.20;;;10.60;91.90;;;9.92;76.28;100955.41;5021153;28;20049;-75
2023/04/16 01:48:56;;;;;;;35.08;21.30;;;10.60;91.80;;;9.93;76.16;100943.72;5023060;28;20045;-75
2023/04/16 01:51:23;;;;;;;32.35;20.42;;;10.60;91.80;;;9.91;76.25;100946.59;5021076;28;20061;-74
2023/04/16 01:53:51;;;;;;;35.88;20.55;;;10.60;91.80;;;9.93;76.44;100951.72;5027695;28;20039;-75
2023/04/16 01:56:20;;;;;;;40.90;20.27;;;10.60;92.00;;;9.92;76.39;100952.72;5028314;28;20037;-74
2023/04/16 01:58:47;;;;;;;37.13;21.40;;;10.60;91.90;;;9.92;76.31;100952.72;5025091;28;20050;-75
2023/04/16 02:01:16;;;;;;;43.78;24.48;;;10.60;91.90;;;9.91;76.33;100957.25;5046816;28;20072;-75
2023/04/16 02:03:45;;;;;;;41.38;23.17;;;10.60;91.90;;;9.93;76.20;100955.19;5025412;28;20042;-77
2023/04/16 02:06:12;;;;;;;41.42;22.42;;;10.70;92.00;;;9.94;76.41;100956.00;5025850;28;20099;-78
2023/04/16 02:08:39;;;;;;;35.75;21.52;;;10.60;91.90;;;9.93;76.47;100954.38;5009911;28;20050;-75
2023/04/16 02:11:07;;;;;;;42.38;21.77;;;10.60;92.10;;;9.91;76.70;100954.56;5010004;28;20060;-77
2023/04/16 02:13:36;;;;;;;41.38;23.48;;;10.60;92.00;;;9.91;76.41;100943.91;5025037;28;20065;-75
2023/04/16 02:16:03;;;;;;;39.33;22.00;;;10.60;91.90;;;9.93;76.53;100954.38;5040479;28;20444;-75
2023/04/16 02:19:03;;;;;;;41.10;25.05;;;10.60;91.80;;;9.93;76.36;100943.72;4986789;28;20046;-76
2023/04/16 02:21:33;;;;;;;43.20;24.25;;;10.60;91.80;;;9.93;76.39;100946.38;5009107;28;20113;-77
2023/04/16 02:24:01;;;;;;;44.28;24.45;;;10.60;91.90;;;9.94;76.41;100950.69;5023804;28;20432;-74
2023/04/16 02:26:30;;;;;;;44.67;24.52;;;10.70;91.90;;;9.95;76.17;100947.00;5021249;28;20149;-76
2023/04/16 02:29:05;;;;;;;43.63;23.85;;;10.60;91.60;;;9.90;76.49;100944.91;5024796;28;20407;-76
2023/04/16 02:31:40;;;;;;;44.53;25.90;;;10.60;91.90;;;9.91;76.54;100951.09;5024512;28;20752;-74
2023/04/16 02:34:08;;;;;;;41.65;25.05;;;10.70;91.90;;;9.93;76.44;100954.38;5024928;28;20399;-76
2023/04/16 02:36:35;;;;;;;45.38;25.58;;;10.60;91.70;;;9.92;76.69;100955.41;5023481;28;20041;-76
2023/04/16 02:39:03;;;;;;;45.47;25.13;;;10.70;92.00;;;9.93;76.45;100954.38;5015449;28;20052;-76
2023/04/16 02:41:30;;;;;;;49.90;26.83;;;10.70;91.90;;;9.92;76.52;100956.22;5011925;28;20056;-74
2023/04/16 02:43:57;;;;;;;49.63;27.10;;;10.60;91.80;;;9.93;76.40;100954.38;5027916;28;20077;-74
2023/04/16 02:46:26;;;;;;;43.00;26.80;;;10.70;91.80;;;9.93;76.49;100954.38;5023830;28;20057;-75
2023/04/16 02:48:53;;;;;;;42.38;25.92;;;10.70;92.00;;;9.94;76.51;100956.84;5027267;28;20050;-75
2023/04/16 02:51:20;;;;;;;42.20;25.02;;;10.60;91.80;;;9.95;76.35;100957.66;5015528;28;20041;-76
2023/04/16 02:53:48;;;;;;;43.28;25.77;;;10.70;91.80;;;9.97;76.49;100952.97;5028587;28;20139;-74
2023/04/16 02:56:15;;;;;;;49.22;24.77;;;10.70;91.90;;;9.97;76.29;100958.31;5024603;28;20057;-76
2023/04/16 02:58:42;;;;;;;41.42;24.38;;;10.70;91.90;;;9.98;76.32;100959.94;5025749;28;20356;-77
2023/04/16 03:01:09;;;;;;;48.72;26.60;;;10.70;91.90;;;9.96;76.54;100962.81;5025737;28;20099;-76
2023/04/16 03:03:38;;;;;;;46.08;26.50;;;10.70;92.20;;;9.95;76.48;100963.81;5017576;28;20091;-74
2023/04/16 03:06:05;;;;;;;49.03;26.95;;;10.70;92.00;;;9.97;76.52;100955.63;5027107;28;20096;-77
2023/04/16 03:08:32;;;;;;;47.05;26.20;;;10.70;92.00;;;9.96;76.41;100956.66;5009880;28;20060;-75
2023/04/16 03:11:00;;;;;;;50.75;27.30;;;10.70;91.90;;;9.97;76.38;100955.63;5010761;28;20118;-78
2023/04/16 03:13:27;;;;;;;45.95;26.00;;;10.70;91.80;;;9.97;76.54;100961.78;5009312;28;20125;-76
2023/04/16 03:15:55;;;;;;;48.03;28.73;;;10.70;92.00;;;9.98;76.26;100963.44;5006098;28;20085;-75
2023/04/16 03:18:22;;;;;;;52.92;28.80;;;10.70;91.80;;;9.99;76.53;100965.06;5009941;28;20046;-77
2023/04/16 03:20:54;;;;;;;55.08;29.40;;;10.80;92.00;;;9.97;76.52;100961.78;5017503;28;20057;-77
2023/04/16 03:23:21;;;;;;;;;;;10.70;92.00;;;9.99;76.49;100958.91;5011128;28;20050;-75
2023/04/16 03:25:48;;;;;;;51.25;28.20;;;10.70;92.00;;;9.99;76.39;100964.25;5009808;28;19931;-74
2023/04/16 03:28:18;;;;;;;50.88;28.80;;;10.80;91.80;;;10.00;76.41;100971.22;5027188;28;20525;-76
2023/04/16 03:30:51;;;;;;;51.17;30.02;;;10.70;91.90;;;10.01;76.69;100964.88;5027165;28;20053;-76
2023/04/16 03:33:18;;;;;;;59.03;30.67;;;10.90;92.00;;;10.00;76.44;100966.72;5008681;28;20042;-75
2023/04/16 03:35:46;;;;;;;58.28;29.48;;;10.80;91.90;;;10.02;76.42;100964.69;5008406;28;20703;-74
2023/04/16 03:38:16;;;;;;;53.83;29.23;;;10.80;91.80;;;10.02;76.46;100964.69;5014552;28;20414;-75
2023/04/16 03:40:43;;;;;;;58.38;30.05;;;10.80;91.80;;;10.03;76.35;100965.50;5016617;28;20584;-76
2023/04/16 03:43:10;;;;;;;53.45;29.88;;;10.80;91.70;;;10.04;76.36;100967.16;5009723;28;20065;-76
2023/04/16 03:45:44;;;;;;;48.50;28.23;;;10.80;91.80;;;10.04;76.60;100972.47;5010113;28;20073;-76
2023/04/16 03:48:12;;;;;;;53.95;28.98;;;10.80;92.00;;;10.01;76.67;100967.56;5026149;28;20056;-78
2023/04/16 03:50:40;;;;;;;59.67;31.25;;;10.80;92.00;;;10.02;76.51;100964.69;5010485;28;20041;-74
2023/04/16 03:53:09;;;;;;;55.28;30.38;;;10.80;91.80;;;10.03;76.49;100968.16;5015748;28;20037;-75
2023/04/16 03:55:38;;;;;;;50.55;28.73;;;10.80;92.00;;;10.03;76.49;100961.00;5020744;28;20513;-75
2023/04/16 03:58:05;;;;;;;51.47;29.10;;;10.80;92.00;;;10.04;76.47;100973.28;5014173;28;20045;-76
2023/04/16 04:00:33;;;;;;;54.20;30.23;;;10.80;92.00;;;10.05;76.76;100974.13;5017010;28;20136;-77
2023/04/16 04:03:07;;;;;;;57.83;31.88;;;10.80;92.20;;;10.05;76.74;100974.13;5019980;28;20041;-77
2023/04/16 04:05:37;;;;;;;59.90;33.10;;;10.80;92.10;;;10.04;76.65;100967.16;5028181;28;20049;-75
2023/04/16 04:08:05;;;;;;;60.22;31.58;;;10.80;92.20;;;10.04;76.67;100975.97;5022609;28;20040;-76
2023/04/16 04:10:33;;;;;;;61.75;32.90;;;10.80;92.10;;;10.05;76.66;100974.13;5040324;28;20045;-75
2023/04/16 04:13:03;;;;;;;57.05;31.05;;;10.80;92.00;;;10.05;76.65;100974.13;5023929;28;20410;-74
2023/04/16 04:15:31;;;;;;;54.40;30.48;;;10.80;92.10;;;10.03;76.90;100970.84;5029438;28;20041;-77
2023/04/16 04:17:59;;;;;;;65.22;33.33;;;10.80;92.30;;;10.03;76.88;100976.97;5030260;28;20050;-77
2023/04/16 04:20:26;;;;;;;65.43;32.97;;;10.80;92.30;;;9.99;77.00;100978.38;5030175;28;20045;-76
2023/04/16 04:22:54;;;;;;;64.18;33.13;;;10.80;92.30;;;10.00;77.00;100980.06;5024079;28;20057;-74
2023/04/16 04:25:24;;;;;;;70.30;34.22;;;10.80;92.20;;;10.00;77.08;100988.06;5027994;28;20399;-77
2023/04/16 04:27:52;;;;;;;65.78;32.88;;;10.80;92.40;;;10.00;77.35;100992.53;5025068;28;20055;-75
2023/04/16 04:30:21;;;;;;;74.60;36.63;;;10.80;92.40;;;10.01;77.31;100986.22;5028932;28;20523;-76
2023/04/16 04:32:48;;;;;;;67.05;34.65;;;10.90;92.60;;;10.02;77.20;100986.00;5043975;28;20068;-75
2023/04/16 04:35:16;;;;;;;72.90;36.47;;;10.80;92.50;;;10.02;77.31;100998.50;5028834;28;20076;-75
2023/04/16 04:37:44;;;;;;;70.97;36.90;;;10.80;92.80;;;10.03;77.32;100994.81;5017034;28;20049;-74
2023/04/16 04:40:18;;;;;;;73.15;35.88;;;10.80;92.60;;;9.99;77.55;100993.56;5030095;28;20124;-76
2023/04/16 04:42:46;;;;;;;77.32;38.53;;;10.70;92.80;;;10.01;77.42;101004.84;5028675;28;20041;-76
2023/04/16 04:45:13;;;;;;;74.95;37.13;;;10.70;92.80;;;10.01;77.49;100996.88;5026876;28;20107;-77
2023/04/16 04:47:43;;;;;;;72.18;36.80;;;10.80;92.70;;;10.01;77.52;101000.34;5025132;28;20050;-76
2023/04/16 04:50:11;;;;;;;75.55;37.60;;;10.70;92.70;;;10.02;77.54;100998.50;5027739;28;20517;-75
2023/04/16 04:52:38;;;;;;;64.32;36.28;;;10.80;92.60;;;10.02;77.34;101003.84;5026049;28;20041;-77
2023/04/16 04:55:08;;;;;;;68.53;35.70;;;10.80;92.70;;;10.00;77.70;101005.84;5029657;28;20057;-78
2023/04/16 04:57:35;;;;;;;68.03;37.33;;;10.70;92.80;;;10.01;77.67;101004.84;5028054;28;20414;-75
2023/04/16 05:00:05;;;;;;;73.85;36.10;;;10.80;92.90;;;10.03;77.60;101013.47;5029279;28;20053;-76
2023/04/16 05:02:42;;;;;;;67.40;36.13;;;10.70;92.90;;;10.03;77.50;101008.97;5017681;28;20141;-76
2023/04/16 05:05:09;;;;;;;76.07;37.90;;;10.80;92.80;;;10.04;77.59;101026.59;5025547;28;20584;-76
2023/04/16 05:07:36;;;;;;;73.57;36.38;;;10.80;92.80;;;10.05;77.54;101012.28;5030042;28;20041;-78
2023/04/16 05:10:04;;;;;;;72.10;36.80;;;10.80;92.70;;;10.06;77.48;101018.44;5015972;28;20292;-75
2023/04/16 05:12:31;;;;;;;69.93;36.08;;;10.80;92.70;;;10.08;77.31;101021.72;5028779;28;20124;-75
2023/04/16 05:14:59;;;;;;;85.20;38.63;;;10.80;92.70;;;10.09;77.36;101028.69;5016927;28;20045;-75
2023/04/16 05:17:26;;;;;;;76.03;36.92;;;10.80;92.60;;;10.10;77.33;101025.00;5010974;28;20041;-75
2023/04/16 05:19:55;;;;;;;66.18;34.55;;;10.80;92.70;;;10.10;77.26;101025.00;5023730;28;20072;-78
2023/04/16 05:22:22;;;;;;;68.78;35.15;;;10.90;92.70;;;10.11;77.20;101028.50;5030761;28;20067;-76
2023/04/16 05:24:49;;;;;;;69.43;35.78;;;10.90;92.60;;;10.11;77.08;101024.00;5019090;28;20092;-74
2023/04/16 05:27:18;;;;;;;61.88;32.58;;;10.90;92.60;;;10.11;77.32;101024.00;5009670;28;20042;-74
2023/04/16 05:29:45;;;;;;;60.47;31.85;;;10.90;92.80;;;10.11;77.13;101029.31;5027274;28;20564;-75
2023/04/16 05:32:12;;;;;;;62.20;32.15;;;10.90;92.60;;;10.12;76.99;101035.47;5033689;28;20049;-76
2023/04/16 05:34:39;;;;;;;58.20;31.83;;;10.90;92.50;;;10.11;77.07;101026.66;5021252;28;20073;-75
2023/04/16 05:37:08;;;;;;;56.17;30.10;;;10.90;92.50;;;10.12;76.95;101032.81;5015923;28;20041;-75
2023/04/16 05:39:35;;;;;;;55.25;29.73;;;10.90;92.50;;;10.13;76.91;101037.13;5028989;28;20045;-77
2023/04/16 05:42:02;;;;;;;53.65;28.75;;;10.90;92.40;;;10.13;76.73;101040.59;5025452;28;20054;-77
2023/04/16 05:44:30;;;;;;;53.05;29.38;;;10.90;92.30;;;10.13;76.55;101045.94;5014300;28;20257;-74
2023/04/16 05:46:57;;;;;;;51.40;26.67;;;10.90;92.20;;;10.11;76.44;101047.16;5020694;28;20123;-75
2023/04/16 05:49:24;;;;;;;47.95;28.52;;;10.90;92.10;;;10.11;76.35;101058.63;5029306;28;20052;-74
2023/04/16 05:51:51;;;;;;;51.67;29.77;;;10.90;92.20;;;10.13;76.33;101050.44;5028026;28;20117;-74
2023/04/16 05:54:20;;;;;;;52.00;27.95;;;10.90;92.00;;;10.13;76.30;101056.59;5029453;28;20045;-76
2023/04/16 05:56:47;;;;;;;52.72;28.52;;;10.90;92.00;;;10.14;76.34;101062.75;5029799;28;20593;-78
2023/04/16 05:59:14;;;;;;;49.42;28.38;;;10.90;92.10;;;10.15;76.36;101059.06;5028477;28;20473;-75
2023/04/16 06:01:42;;;;;;;54.67;27.73;;;10.90;92.00;;;10.15;76.13;101064.38;5028187;28;20077;-76
2023/04/16 06:04:09;;;;;;;61.70;27.73;;;10.90;92.00;;;10.09;76.03;101066.00;5023758;28;20124;-80
2023/04/16 06:06:36;;;;;;;46.97;27.58;;;10.80;91.80;;;10.11;76.19;101071.16;5020487;28;20048;-79
2023/04/16 06:09:04;;;;;;;50.97;28.85;;;10.90;91.80;;;10.12;76.01;101070.94;5011007;28;20049;-77
2023/04/16 06:11:32;;;;;;;45.13;25.35;;;10.90;91.90;;;10.12;75.86;101072.78;5026051;28;20494;-77
2023/04/16 06:14:00;;;;;;;44.78;26.60;;;10.90;91.60;;;10.12;75.72;101065.63;5029227;28;20512;-79
2023/04/16 06:16:27;;;;;;;52.60;27.38;;;10.90;91.70;;;10.09;75.55;101071.31;5019215;28;20038;-77
2023/04/16 06:18:54;;;;;;;47.63;27.25;;;10.90;91.60;;;10.11;75.80;101068.47;5026935;28;20065;-78
2023/04/16 06:21:21;;;;;;;47.53;26.80;;;10.80;91.50;;;10.13;75.81;101075.25;5026680;28;20038;-79
2023/04/16 06:23:49;;;;;;;49.90;26.90;;;10.90;91.80;;;10.12;75.86;101072.78;5028083;28;21658;-77
2023/04/16 06:26:16;;;;;;;49.72;27.75;;;10.90;91.70;;;10.12;75.76;101076.28;5028308;28;20073;-76
2023/04/16 06:28:44;;;;;;;51.78;27.40;;;10.90;91.70;;;10.13;75.71;101077.91;5034113;28;20055;-77
2023/04/16 06:31:12;;;;;;;61.90;28.75;;;10.90;91.50;;;10.10;75.59;101078.28;5024905;28;20046;-77
2023/04/16 06:33:39;;;;;;;60.00;30.92;;;10.90;91.40;;;10.10;75.65;101083.63;5029584;28;20069;-77
2023/04/16 06:36:07;;;;;;;50.45;29.15;;;10.90;91.40;;;10.11;75.70;101092.47;5027390;28;20560;-78
2023/04/16 06:38:34;;;;;;;50.72;29.08;;;10.90;91.60;;;10.11;75.57;101092.47;5018806;28;20099;-77
2023/04/16 06:41:01;;;;;;;49.60;29.42;;;10.90;91.40;;;10.12;75.92;101094.09;5023492;28;20069;-76
2023/04/16 06:43:29;;;;;;;47.47;27.77;;;10.90;91.60;;;10.12;75.82;101089.59;5015454;28;20402;-79
2023/04/16 06:45:57;;;;;;;51.60;29.42;;;10.90;91.60;;;10.12;76.11;101105.59;5020121;28;20114;-79
2023/04/16 06:48:24;;;;;;;55.30;29.40;;;10.90;92.00;;;10.12;76.02;101102.09;5022665;28;20132;-81
2023/04/16 06:50:52;;;;;;;56.47;30.92;;;10.80;91.70;;;10.12;76.04;101105.59;5027097;28;20559;-79
2023/04/16 06:53:19;;;;;;;52.30;30.10;;;10.90;91.80;;;10.14;76.14;101090.22;5028773;28;20037;-78
2023/04/16 06:55:46;;;;;;;52.60;29.23;;;10.90;91.90;;;10.14;75.94;101092.06;5020927;28;20548;-77
2023/04/16 06:58:13;;;;;;;53.45;30.17;;;10.90;91.60;;;10.11;75.78;101095.97;5023453;28;20490;-79
2023/04/16 07:00:41;;;;;;;58.10;30.23;;;10.80;91.60;;;10.14;75.87;101100.06;5061613;22;20613;-81
2023/04/16 07:03:09;;;;;;;55.38;31.00;;;10.90;91.80;;;10.15;75.92;101102.56;5065177;28;20036;-81
2023/04/16 07:05:39;;;;;;;52.88;31.17;;;10.90;91.70;;;10.18;75.90;101101.31;5067694;28;20436;-80
2023/04/16 07:08:06;;;;;;;58.47;31.83;;;10.90;91.80;;;10.19;75.95;101101.13;5068498;28;20041;-80
2023/04/16 07:10:34;;;;;;;55.92;30.83;;;11.00;91.60;;;10.22;75.94;101100.75;5067013;28;20094;-80
2023/04/16 07:13:01;;;;;;;57.17;30.75;;;10.90;91.70;;;10.24;76.04;101108.56;5064890;28;20045;-83
2023/04/16 07:15:29;;;;;;;57.85;31.33;;;11.00;91.80;;;10.26;75.90;101104.72;5051044;28;20056;-81
2023/04/16 07:17:56;;;;;;;50.55;29.90;;;11.00;91.70;;;10.26;75.76;101103.91;5068667;28;21823;-81
2023/04/16 07:20:24;;;;;;;54.53;29.75;;;11.00;91.60;;;10.27;75.67;101111.69;5079164;28;20140;-81
2023/04/16 07:22:52;;;;;;;54.72;30.25;;;11.00;91.60;;;10.27;75.42;101114.34;5072640;28;20444;-80
2023/04/16 07:25:19;;;;;;;58.63;31.40;;;11.00;91.30;;;10.29;75.58;101106.97;5059162;28;20086;-80
2023/04/16 07:27:46;;;;;;;55.42;31.10;;;11.00;91.40;;;10.31;75.65;101115.63;5056604;28;20451;-80
2023/04/16 07:30:14;;;;;;;50.60;29.75;;;11.10;91.70;;;10.31;75.59;101117.47;5059658;28;20068;-80
2023/04/16 07:32:41;;;;;;;57.13;31.20;;;11.10;91.60;;;10.34;75.55;101121.56;5072633;28;20130;-81
2023/04/16 07:35:09;;;;;;;55.95;31.13;;;11.10;91.40;;;10.36;75.80;101115.03;5056978;28;20404;-81
2023/04/16 07:37:37;;;;;;;57.33;31.13;;;11.10;91.90;;;10.36;76.04;101122.22;5062490;28;20059;-79
2023/04/16 07:40:06;;;;;;;55.38;31.15;;;11.10;91.80;;;10.39;75.84;101125.31;5072869;28;20079;-81
2023/04/16 07:42:33;;;;;;;57.65;31.77;;;11.10;91.80;;;10.40;75.97;101131.47;5080541;28;20072;-79
2023/04/16 07:45:01;;;;;;;54.50;31.52;;;11.10;91.80;;;10.43;75.80;101131.06;5070044;28;20047;-79
2023/04/16 07:47:28;;;;;;;56.80;30.60;;;11.10;91.70;;;10.44;75.79;101132.72;5060710;28;20037;-79
2023/04/16 07:49:55;;;;;;;52.40;30.02;;;11.20;91.70;;;10.44;75.72;101136.25;5071217;28;20048;-78
2023/04/16 07:52:22;;;;;;;54.25;31.10;;;11.20;91.60;;;10.44;75.61;101133.56;5070366;28;20123;-79
2023/04/16 07:54:51;;;;;;;48.63;30.48;;;11.20;91.40;;;10.45;75.47;101137.88;5072537;28;20143;-80
2023/04/16 07:57:18;;;;;;;52.50;29.73;;;11.20;91.40;;;10.46;75.52;101138.69;5072561;28;20484;-79
2023/04/16 07:59:46;;;;;;;51.95;29.90;;;11.20;91.40;;;10.46;75.28;101142.19;5071072;28;20076;-80
2023/04/16 08:02:16;;;;;;;51.88;30.55;;;11.20;91.10;;;10.45;75.08;101145.06;5072691;28;20048;-79
2023/04/16 08:04:44;;;;;;;48.85;29.52;;;11.20;91.00;;;10.46;75.04;101152.84;5072221;28;20028;-79
2023/04/16 08:07:11;;;;;;;54.25;29.55;;;11.20;91.00;;;10.49;74.99;101154.28;5070898;28;20562;-80
2023/04/16 08:09:48;;;;;;;51.65;31.88;;;11.20;91.00;;;10.51;75.29;101154.94;5075705;28;20132;-81
2023/04/16 08:12:17;;;;;;;49.50;30.08;;;11.20;91.20;;;10.53;75.38;101152.91;5065398;28;20497;-80
2023/04/16 08:14:45;;;;;;;53.15;31.42;;;11.30;91.30;;;10.54;75.39;101158.06;5071970;28;20055;-79
2023/04/16 08:17:12;;;;;;;48.38;30.02;;;11.30;91.30;;;10.57;75.23;101154.16;5070011;28;20127;-80
2023/04/16 08:19:40;;;;;;;46.08;28.77;;;11.30;91.30;;;10.60;75.23;101156.44;5071353;28;20045;-81
2023/04/16 08:22:07;;;;;;;51.85;29.70;;;11.30;91.30;;;10.63;75.07;101158.72;5071731;28;20076;-78
2023/04/16 08:24:34;;;;;;;47.05;27.77;;;11.40;91.20;;;10.66;75.19;101158.34;5062379;28;20389;-80
2023/04/16 08:27:01;;;;;;;50.60;29.88;;;11.40;91.20;;;10.68;74.93;101161.63;5078334;28;20489;-80
2023/04/16 08:29:30;;;;;;;43.17;29.02;;;11.40;91.10;;;10.70;74.64;101164.94;5071262;28;20052;-80
2023/04/16 08:31:57;;;;;;;51.78;30.65;;;11.40;90.80;;;10.73;74.69;101167.19;5055243;28;20098;-79
2023/04/16 08:34:25;;;;;;;48.72;30.08;;;11.40;90.90;;;10.75;74.69;101170.50;5072822;28;20040;-80
2023/04/16 08:36:52;;;;;;;49.55;29.40;;;11.50;91.00;;;10.77;74.76;101165.78;5071314;28;20531;-78
2023/04/16 08:39:19;;;;;;;46.95;28.60;;;11.50;90.80;;;10.79;74.41;101169.09;5064784;28;20408;-79
2023/04/16 08:41:47;;;;;;;51.25;30.88;;;11.60;90.50;;;10.80;74.11;101164.59;5076486;28;20663;-79
2023/04/16 08:44:21;;;;;;;48.60;30.20;;;11.60;90.30;;;10.84;73.98;101179.19;5067826;28;20025;-80
2023/04/16 08:46:53;;;;;;;55.38;29.77;;;11.60;90.30;;;10.82;73.33;101186.56;5077605;28;20128;-81
2023/04/16 08:49:20;;;;;;;49.47;29.42;;;11.60;89.60;;;10.82;72.86;101176.69;5073615;28;20048;-80
2023/04/16 08:51:53;;;;;;;50.15;32.03;;;11.60;89.20;;;10.79;72.56;101177.09;5067811;28;20048;-81
2023/04/16 08:54:34;;;;;;;45.83;28.98;;;11.60;89.10;;;10.80;72.81;101192.09;5061840;28;20443;-81
2023/04/16 08:57:05;;;;;;;48.15;30.63;;;11.60;89.30;;;10.85;73.21;101186.19;5051778;28;20127;-81
2023/04/16 08:59:33;;;;;;;45.88;28.15;;;11.60;89.70;;;10.88;73.33;101187.63;5056840;28;20131;-79
2023/04/16 09:02:02;;;;;;;57.15;30.55;;;11.60;89.60;;;10.90;73.00;101186.41;5058609;28;20076;-79
2023/04/16 09:04:29;;;;;;;41.92;28.23;;;11.70;89.50;;;10.92;73.18;101194.22;5064750;28;20127;-80
2023/04/16 09:06:58;;;;;;;49.15;28.85;;;11.60;89.60;;;10.94;73.45;101194.88;5068928;28;20041;-79
2023/04/16 09:09:26;;;;;;;49.78;29.38;;;11.70;90.10;;;10.95;73.93;101199.16;5060940;28;20045;-79
2023/04/16 09:11:56;;;;;;;47.00;29.42;;;11.70;90.20;;;10.95;74.09;101200.00;5035435;28;20140;-79
2023/04/16 09:14:23;;;;;;;44.95;27.88;;;11.70;90.30;;;10.98;73.66;101212.09;5054766;28;20033;-80
2023/04/16 09:16:53;;;;;;;44.40;28.92;;;11.70;89.90;;;10.98;73.57;101204.94;5051342;28;20151;-80
2023/04/16 09:19:22;;;;;;;42.20;26.83;;;11.80;89.80;;;11.02;73.12;101205.38;5058189;28;20124;-81
2023/04/16 09:21:50;;;;;;;49.00;29.45;;;11.80;89.50;;;11.05;73.34;101204.97;5050727;28;20053;-81
2023/04/16 09:24:18;;;;;;;49.30;29.38;;;11.80;89.70;;;11.06;73.35;101202.09;5069364;28;20037;-79
2023/04/16 09:26:46;;;;;;;41.88;27.35;;;11.80;89.60;;;11.08;73.09;101207.28;5076363;28;20063;-80
2023/04/16 09:29:34;;;;;;;45.17;28.00;;;11.80;89.40;;;11.08;72.63;101202.75;5077403;28;20082;-80
2023/04/16 09:32:04;;;;;;;45.50;28.20;;;11.80;89.10;;;11.09;72.55;101212.41;5051813;28;20041;-80
2023/04/16 09:34:34;;;;;;;42.22;27.42;;;11.80;88.90;;;11.09;72.24;101211.59;5069326;28;20043;-80
2023/04/16 09:37:17;;;;;;;39.67;25.90;;;11.90;88.90;;;11.09;72.38;101217.75;5065980;28;20072;-81
2023/04/16 09:39:45;;;;;;;43.50;27.33;;;11.90;89.00;;;11.07;71.74;101217.09;5062041;28;20072;-77
2023/04/16 09:42:14;;;;;;;43.70;25.92;;;11.80;88.10;;;11.08;71.54;101220.63;5060378;28;20036;-84
2023/04/16 09:44:41;;;;;;;44.97;27.02;;;11.80;88.00;;;11.09;71.51;101222.25;5067919;28;20052;-81
2023/04/16 09:47:10;;;;;;;40.50;25.77;;;11.80;88.10;;;11.07;71.30;101218.94;5059746;28;20701;-79
2023/04/16 09:49:42;;;;;;;38.47;25.30;;;11.80;88.00;;;11.07;71.08;101224.28;5067425;28;20135;-81
2023/04/16 09:52:14;;;;;;;46.75;26.33;;;11.80;87.80;;;11.09;70.99;101224.94;5061325;28;20048;-81
2023/04/16 09:54:48;;;;;;;40.03;26.65;;;11.80;87.90;;;11.13;71.41;101220.03;5049538;28;20044;-78
2023/04/16 09:57:21;;;;;;;40.53;25.70;;;11.90;88.30;;;11.18;71.54;101225.59;5065615;28;20040;-79
2023/04/16 09:59:48;;;;;;;40.25;25.25;;;11.90;88.30;;;11.21;71.86;101222.53;5092296;28;20048;-79
2023/04/16 10:02:16;;;;;;;36.95;24.98;;;12.00;88.70;;;11.27;72.01;101219.91;5080003;28;20094;-79
2023/04/16 10:04:50;;;;;;;39.30;26.27;;;12.00;88.70;;;11.33;72.22;101221.78;5061548;28;20075;-78
2023/04/16 10:07:18;;;;;;;40.65;26.85;;;12.10;88.90;;;11.39;72.74;101222.00;5068025;28;20095;-79